createdAt,value
2023-03-23T15:57:54.069Z,97860.63
2023-03-23T16:00:24.021Z,97862.44
2023-03-23T16:03:04.812Z,97866.79
2023-03-23T16:05:33.956Z,97867.66
2023-03-23T16:12:15.859Z,97879.48
2023-03-23T16:14:48.804Z,97882.09
2023-03-23T16:17:22.159Z,97880.73
2023-03-23T16:20:20.611Z,97880.90
2023-03-23T16:22:49.051Z,97879.17
2023-03-23T16:25:32.422Z,97874.54
2023-03-23T16:28:01.376Z,97879.21
2023-03-23T16:30:33.911Z,97881.23
2023-03-23T16:33:02.122Z,97880.66
2023-03-23T16:35:32.784Z,97881.21
2023-03-23T16:38:09.220Z,97880.66
2023-03-23T16:40:37.969Z,97880.73
2023-03-23T16:43:12.140Z,97875.56
2023-03-23T16:45:45.872Z,97869.64
2023-03-23T16:48:16.205Z,97873.70
2023-03-23T16:50:47.127Z,97879.61
2023-03-23T16:53:16.580Z,97881.94
2023-03-23T16:55:47.965Z,97886.77
2023-03-23T16:58:18.135Z,97883.71
2023-03-23T17:00:51.638Z,97883.27
2023-03-23T17:03:20.063Z,97890.05
2023-03-23T17:05:50.111Z,97888.51
2023-03-23T17:08:18.831Z,97890.05
2023-03-23T17:10:50.103Z,97888.86
2023-03-23T17:13:18.898Z,97891.95
2023-03-23T17:15:47.513Z,97895.19
2023-03-23T17:18:16.781Z,97891.91
2023-03-23T17:20:45.868Z,97889.30
2023-03-23T17:23:14.001Z,97889.50
2023-03-23T17:25:46.270Z,97892.90
2023-03-23T17:28:15.826Z,97894.69
2023-03-23T17:30:46.891Z,97893.20
2023-03-23T17:33:15.786Z,97895.99
2023-03-23T17:35:46.256Z,97894.89
2023-03-23T17:38:15.658Z,97899.70
2023-03-23T17:40:44.514Z,97901.95
2023-03-23T17:43:13.895Z,97905.58
2023-03-23T17:45:44.346Z,97903.43
2023-03-23T17:48:15.721Z,97906.12
2023-03-23T17:50:48.785Z,97908.75
2023-03-23T17:53:19.069Z,97910.60
2023-03-23T17:55:47.661Z,97902.54
2023-03-23T17:58:16.931Z,97900.18
2023-03-23T18:00:45.183Z,97900.06
2023-03-23T18:03:15.731Z,97902.58
2023-03-23T18:05:44.229Z,97902.65
2023-03-23T18:08:15.440Z,97901.71
2023-03-23T18:10:49.733Z,97903.80
2023-03-23T18:13:18.230Z,97900.02
2023-03-23T18:15:47.075Z,97900.92
2023-03-23T18:18:17.952Z,97905.64
2023-03-23T18:20:46.524Z,97906.95
2023-03-23T18:23:16.069Z,97907.30
2023-03-23T18:25:44.683Z,97908.66
2023-03-23T18:28:17.322Z,97909.27
2023-03-23T18:30:50.543Z,97911.05
2023-03-23T18:33:22.701Z,97915.42
2023-03-23T18:35:57.491Z,97915.52
2023-03-23T18:38:27.998Z,97912.50
2023-03-23T18:40:56.762Z,97915.63
2023-03-23T18:43:31.361Z,97910.95
2023-03-23T18:46:01.021Z,97913.33
2023-03-23T18:48:33.836Z,97917.53
2023-03-23T18:51:04.914Z,97914.23
2023-03-23T18:53:35.333Z,97914.76
2023-03-23T18:56:07.460Z,97918.91
2023-03-23T18:58:37.438Z,97916.28
2023-03-23T19:01:07.578Z,97914.11
2023-03-23T19:03:36.942Z,97913.14
2023-03-23T19:06:08.595Z,97908.74
2023-03-23T19:08:36.916Z,97904.95
2023-03-23T19:11:08.441Z,97912.43
2023-03-23T19:13:38.829Z,97911.37
2023-03-23T19:16:12.532Z,97905.77
2023-03-23T19:18:40.832Z,97904.73
2023-03-23T19:21:13.450Z,97902.71
2023-03-23T19:23:43.361Z,97902.13
2023-03-23T19:26:20.076Z,97902.16
2023-03-23T19:31:25.091Z,97898.98
2023-03-23T19:33:53.627Z,97900.16
2023-03-23T19:36:25.017Z,97905.60
2023-03-23T19:38:58.037Z,97902.09
2023-03-23T19:41:32.332Z,97904.21
2023-03-23T19:44:18.004Z,97908.46
2023-03-23T19:46:48.095Z,97911.56
2023-03-23T19:49:17.037Z,97913.58
2023-03-23T19:51:45.835Z,97914.35
2023-03-23T19:54:14.333Z,97913.02
2023-03-23T19:56:43.449Z,97914.95
2023-03-23T19:59:15.028Z,97916.52
2023-03-23T20:01:44.363Z,97916.59
2023-03-23T20:04:14.406Z,97911.94
2023-03-23T20:06:42.616Z,97915.23
2023-03-23T20:09:11.739Z,97914.02
2023-03-23T20:11:42.448Z,97911.98
2023-03-23T20:14:11.137Z,97916.19
2023-03-23T20:16:39.245Z,97914.52
2023-03-23T20:19:08.895Z,97916.05
2023-03-23T20:21:39.688Z,97914.50
2023-03-23T20:24:13.541Z,97910.95
2023-03-23T20:26:47.572Z,97908.06
2023-03-23T20:29:16.539Z,97909.90
2023-03-23T20:31:46.675Z,97908.71
2023-03-23T20:34:28.691Z,97910.67
2023-03-23T20:36:58.286Z,97908.02
2023-03-23T20:39:32.148Z,97907.98
2023-03-23T20:42:04.673Z,97905.27
2023-03-23T20:44:35.158Z,97904.45
2023-03-23T20:47:04.152Z,97899.84
2023-03-23T20:49:37.344Z,97899.76
2023-03-23T20:52:15.500Z,97910.11
2023-03-23T20:54:45.726Z,97908.86
2023-03-23T20:57:14.730Z,97913.02
2023-03-23T20:59:43.150Z,97915.14
2023-03-23T21:03:28.870Z,97919.30
2023-03-23T21:09:10.255Z,97926.56
2023-03-23T21:11:38.396Z,97934.84
2023-03-23T21:14:07.008Z,97943.13
2023-03-23T21:16:35.781Z,97950.17
2023-03-23T21:19:15.969Z,97949.65
2023-03-23T21:21:55.856Z,97941.55
2023-03-23T21:24:29.616Z,97936.70
2023-03-23T21:27:00.267Z,97933.70
2023-03-23T21:29:31.907Z,97937.71
2023-03-23T21:32:08.236Z,97938.73
2023-03-23T21:34:43.779Z,97941.46
2023-03-23T21:37:15.383Z,97943.70
2023-03-23T21:39:43.686Z,97933.86
2023-03-23T21:42:14.162Z,97934.11
2023-03-23T21:44:43.036Z,97931.94
2023-03-23T21:47:16.341Z,97934.02
2023-03-23T21:49:46.744Z,97931.86
2023-03-23T21:52:14.967Z,97927.50
2023-03-23T21:54:49.902Z,97929.48
2023-03-23T21:57:21.347Z,97932.08
2023-03-23T21:59:52.177Z,97928.45
2023-03-23T22:02:21.641Z,97925.42
2023-03-23T22:04:50.139Z,97924.86
2023-03-23T22:07:24.785Z,97925.61
2023-03-23T22:09:56.818Z,97927.11
2023-03-23T22:12:25.920Z,97931.94
2023-03-23T22:14:55.089Z,97929.77
2023-03-23T22:17:23.305Z,97926.94
2023-03-23T22:19:51.991Z,97926.66
2023-03-23T22:22:21.376Z,97924.91
2023-03-23T22:24:53.113Z,97920.98
2023-03-23T22:27:21.294Z,97918.57
2023-03-23T22:29:54.427Z,97917.69
2023-03-23T22:32:26.887Z,97915.56
2023-03-23T22:35:00.258Z,97917.70
2023-03-23T22:37:28.560Z,97914.30
2023-03-23T22:39:59.442Z,97910.32
2023-03-23T22:42:28.821Z,97909.83
2023-03-23T22:44:57.464Z,97912.98
2023-03-23T22:47:31.571Z,97915.89
2023-03-23T22:50:02.276Z,97919.36
2023-03-23T22:52:31.279Z,97917.23
2023-03-23T22:55:05.927Z,97922.73
2023-03-23T22:57:35.882Z,97917.92
2023-03-23T23:00:09.272Z,97919.52
2023-03-23T23:02:39.552Z,97922.83
2023-03-23T23:05:10.474Z,97925.08
2023-03-23T23:07:44.110Z,97932.27
2023-03-23T23:10:17.083Z,97933.17
2023-03-23T23:12:45.694Z,97931.29
2023-03-23T23:15:22.305Z,97926.52
2023-03-23T23:17:54.883Z,97932.95
2023-03-23T23:20:26.604Z,97927.54
2023-03-23T23:23:01.673Z,97928.42
2023-03-23T23:25:30.718Z,97928.43
2023-03-23T23:28:02.371Z,97931.27
2023-03-23T23:30:36.115Z,97936.76
2023-03-23T23:33:06.345Z,97937.77
2023-03-23T23:35:37.156Z,97937.30
2023-03-23T23:38:06.906Z,97934.39
2023-03-23T23:40:36.544Z,97935.79
2023-03-23T23:43:09.464Z,97931.45
2023-03-23T23:45:38.577Z,97934.96
2023-03-23T23:48:07.328Z,97930.17
2023-03-23T23:50:37.146Z,97928.56
2023-03-23T23:53:06.672Z,97928.97
2023-03-23T23:55:39.571Z,97930.02
2023-03-23T23:58:07.829Z,97931.24
